Time;durP1;ratioP1;P1;durP2;ratioP2;P2;SDS_P1;SDS_P2;PMS_P1;PMS_P2;Temp;Humidity;BMP_temperature;BMP_pressure;BME280_temperature;BME280_humidity;BME280_pressure;Samples;Min_cycle;Max_cycle;Signal;HPM_P1;HPM_P2
2022/05/08 00:01:40;;;;;;;8.93;5.70;;;15.40;99.90;;;;;;5076072;28;20593;-72
2022/05/08 00:04:06;;;;;;;6.20;5.70;;;15.40;99.90;;;;;;5075225;28;20621;-72
2022/05/08 00:06:32;;;;;;;10.00;6.90;;;15.40;99.90;;;;;;5074724;28;21011;-72
2022/05/08 00:09:00;;;;;;;6.80;6.30;;;15.40;99.90;;;;;;5075495;28;20620;-72
2022/05/08 00:11:27;;;;;;;5.90;5.50;;;15.40;99.90;;;;;;5075497;28;20726;-72
2022/05/08 00:13:53;;;;;;;7.43;6.80;;;15.40;99.90;;;;;;5075511;28;21243;-72
2022/05/08 00:16:19;;;;;;;6.97;6.43;;;15.50;99.90;;;;;;5075594;28;20617;-73
2022/05/08 00:18:46;;;;;;;5.80;5.37;;;15.50;99.90;;;;;;5041690;28;20661;-72
2022/05/08 00:21:12;;;;;;;6.87;6.13;;;15.40;99.90;;;;;;5075545;28;20601;-73
2022/05/08 00:23:38;;;;;;;6.97;6.47;;;15.40;99.90;;;;;;5075561;28;20602;-72
2022/05/08 00:26:07;;;;;;;7.20;6.57;;;15.40;99.90;;;;;;5075164;28;20597;-73
2022/05/08 00:28:35;;;;;;;7.70;7.10;;;15.40;99.90;;;;;;5093472;28;20972;-72
2022/05/08 00:31:02;;;;;;;6.87;6.20;;;15.50;99.90;;;;;;5093484;28;20609;-71
2022/05/08 00:33:29;;;;;;;6.90;6.40;;;15.50;99.90;;;;;;5092672;28;20616;-72
2022/05/08 00:35:55;;;;;;;7.57;6.80;;;15.50;99.90;;;;;;5058864;28;20604;-71
2022/05/08 00:38:22;;;;;;;6.77;6.20;;;15.60;99.90;;;;;;5093470;28;20601;-71
2022/05/08 00:40:48;;;;;;;7.10;6.53;;;15.50;99.90;;;;;;5075331;28;20620;-71
2022/05/08 00:43:38;;;;;;;6.87;6.27;;;15.50;99.90;;;;;;5058869;28;20965;-71
2022/05/08 00:46:10;;;;;;;8.10;6.00;;;15.40;99.90;;;;;;5074972;28;20633;-71
2022/05/08 00:48:37;;;;;;;7.20;6.40;;;15.40;99.90;;;;;;5075006;28;20616;-72
2022/05/08 00:51:06;;;;;;;7.63;6.93;;;15.30;99.90;;;;;;5075286;28;20624;-71
2022/05/08 00:53:35;;;;;;;8.20;7.40;;;15.30;99.90;;;;;;5074849;28;20620;-71
2022/05/08 00:56:05;;;;;;;7.50;6.90;;;15.30;99.90;;;;;;5093054;28;20608;-71
2022/05/08 00:58:33;;;;;;;7.77;6.97;;;15.30;99.90;;;;;;5092716;28;21148;-72
2022/05/08 01:00:59;;;;;;;7.70;7.00;;;15.20;99.90;;;;;;5092975;28;20621;-72
2022/05/08 01:03:26;;;;;;;7.80;7.10;;;15.20;99.90;;;;;;5074689;28;20897;-73
2022/05/08 01:05:54;;;;;;;8.80;7.90;;;15.10;99.90;;;;;;5074439;28;21212;-72
2022/05/08 01:08:22;;;;;;;8.67;7.87;;;15.10;99.90;;;;;;5093078;28;20582;-72
2022/05/08 01:10:49;;;;;;;8.47;7.77;;;15.00;99.90;;;;;;5074502;28;20624;-72
2022/05/08 01:13:15;;;;;;;9.10;8.23;;;15.00;99.90;;;;;;5092876;28;20991;-72
2022/05/08 01:15:43;;;;;;;8.67;7.97;;;15.00;99.90;;;;;;5092642;28;20613;-72
2022/05/08 01:18:12;;;;;;;9.83;8.90;;;14.90;99.90;;;;;;5074403;28;20632;-72
2022/05/08 01:20:42;;;;;;;9.07;8.27;;;15.00;99.90;;;;;;5058198;28;20649;-72
2022/05/08 01:23:10;;;;;;;8.40;7.70;;;14.90;99.90;;;;;;5092870;28;20608;-72
2022/05/08 01:25:45;;;;;;;9.90;9.00;;;14.90;99.90;;;;;;5092763;28;20616;-72
2022/05/08 01:28:12;;;;;;;10.43;8.37;;;14.80;99.90;;;;;;5057828;28;20616;-72
2022/05/08 01:30:46;;;;;;;9.57;8.57;;;14.80;99.90;;;;;;5092545;28;20617;-72
2022/05/08 01:33:13;;;;;;;10.30;9.20;;;14.70;99.90;;;;;;5092443;28;21134;-72
2022/05/08 01:35:41;;;;;;;10.70;9.60;;;14.70;99.90;;;;;;5074329;28;20626;-72
2022/05/08 01:38:10;;;;;;;10.43;9.40;;;14.70;99.90;;;;;;5075243;28;20954;-72
2022/05/08 01:40:36;;;;;;;10.83;9.83;;;14.60;99.90;;;;;;5096564;28;20794;-72
2022/05/08 01:43:03;;;;;;;14.10;9.93;;;14.50;99.90;;;;;;5078164;28;20589;-72
2022/05/08 01:45:31;;;;;;;10.10;9.20;;;14.50;99.90;;;;;;5096184;28;20586;-72
2022/05/08 01:50:43;;;;;;;11.00;9.87;;;14.30;99.90;;;;;;5096356;28;20552;-72
2022/05/08 01:53:09;;;;;;;10.13;9.23;;;14.30;99.90;;;;;;5096260;28;20620;-72
2022/05/08 01:55:36;;;;;;;9.97;9.17;;;14.30;99.90;;;;;;5077286;28;20621;-73
2022/05/08 01:58:03;;;;;;;13.10;10.10;;;14.30;99.90;;;;;;5096198;28;20613;-72
2022/05/08 02:00:31;;;;;;;10.97;10.07;;;14.30;99.90;;;;;;5096148;28;20657;-72
2022/05/08 02:02:59;;;;;;;10.00;9.00;;;14.20;99.90;;;;;;5078180;28;20605;-72
2022/05/08 02:05:28;;;;;;;11.20;9.90;;;14.20;99.90;;;;;;5077655;28;20641;-72
2022/05/08 02:07:55;;;;;;;16.93;10.10;;;14.20;99.90;;;;;;5073961;28;20681;-72
2022/05/08 02:10:22;;;;;;;11.50;10.40;;;14.20;99.90;;;;;;5075484;28;20610;-72
2022/05/08 02:12:49;;;;;;;10.80;9.80;;;14.20;99.90;;;;;;5073927;28;21190;-72
2022/05/08 02:15:16;;;;;;;11.87;10.70;;;14.20;99.90;;;;;;5075778;28;20629;-71
2022/05/08 02:17:44;;;;;;;12.23;11.03;;;14.10;99.90;;;;;;5074498;28;20622;-73
2022/05/08 02:20:11;;;;;;;12.83;10.63;;;14.10;99.90;;;;;;5075377;28;20653;-71
2022/05/08 02:22:38;;;;;;;13.07;11.73;;;14.00;99.90;;;;;;5075440;28;20613;-71
2022/05/08 02:25:06;;;;;;;13.57;11.07;;;13.90;99.90;;;;;;5075183;28;21259;-71
2022/05/08 02:27:40;;;;;;;11.40;10.17;;;13.80;99.90;;;;;;5075137;28;20989;-71
2022/05/08 02:30:08;;;;;;;12.00;10.53;;;13.90;99.90;;;;;;5073770;28;20626;-71
2022/05/08 02:32:36;;;;;;;11.50;10.50;;;13.80;99.90;;;;;;5073727;28;20625;-72
2022/05/08 02:35:04;;;;;;;13.03;11.10;;;13.80;99.90;;;;;;5074970;28;20584;-72
2022/05/08 02:37:30;;;;;;;12.30;11.30;;;13.80;99.90;;;;;;5073489;28;20629;-71
2022/05/08 02:39:57;;;;;;;12.60;11.50;;;13.70;99.90;;;;;;5074889;28;21160;-72
2022/05/08 02:42:23;;;;;;;12.17;11.00;;;13.70;99.90;;;;;;5074950;28;20614;-72
2022/05/08 02:44:50;;;;;;;12.63;11.30;;;13.60;99.90;;;;;;5075168;28;20637;-72
2022/05/08 02:47:16;;;;;;;11.70;10.50;;;13.60;99.90;;;;;;5056622;28;21051;-71
2022/05/08 02:49:43;;;;;;;11.93;10.90;;;13.60;99.90;;;;;;5073455;28;20661;-71
2022/05/08 02:52:09;;;;;;;12.73;11.47;;;13.60;99.90;;;;;;5074818;28;20635;-71
2022/05/08 02:54:35;;;;;;;13.30;11.07;;;13.60;99.90;;;;;;5075067;28;20606;-71
2022/05/08 02:59:47;;;;;;;11.87;10.70;;;13.50;99.90;;;;;;5074090;28;20971;-71
2022/05/08 03:02:14;;;;;;;12.90;11.60;;;13.50;99.90;;;;;;5072991;28;20622;-71
2022/05/08 03:04:41;;;;;;;12.97;11.60;;;13.40;99.90;;;;;;5055817;28;21215;-71
2022/05/08 03:07:07;;;;;;;13.27;11.97;;;13.40;99.90;;;;;;5072934;28;20669;-71
2022/05/08 03:09:34;;;;;;;12.43;11.27;;;13.50;99.90;;;;;;5074250;28;20654;-71
2022/05/08 03:12:00;;;;;;;14.47;13.03;;;13.40;99.90;;;;;;5074691;28;20580;-71
2022/05/08 03:14:28;;;;;;;13.50;12.20;;;13.40;99.90;;;;;;5072659;28;20629;-71
2022/05/08 03:16:54;;;;;;;13.83;12.63;;;13.40;99.90;;;;;;5074340;28;20589;-71
2022/05/08 03:19:21;;;;;;;13.00;11.80;;;13.30;99.90;;;;;;5056001;28;21204;-72
2022/05/08 03:21:51;;;;;;;14.03;11.90;;;13.30;99.90;;;;;;5056004;28;20612;-72
2022/05/08 03:24:18;;;;;;;12.67;11.50;;;13.30;99.90;;;;;;5056758;28;20618;-72
2022/05/08 03:26:44;;;;;;;13.33;12.13;;;13.30;99.90;;;;;;5072551;28;20622;-72
2022/05/08 03:29:11;;;;;;;13.53;12.20;;;13.30;99.90;;;;;;5056508;28;20630;-72
2022/05/08 03:31:38;;;;;;;13.00;11.80;;;13.30;99.90;;;;;;5072489;28;20606;-72
2022/05/08 03:34:05;;;;;;;13.80;12.50;;;13.30;99.90;;;;;;5073465;28;20618;-72
2022/05/08 03:36:32;;;;;;;14.30;11.67;;;13.30;99.90;;;;;;5073646;28;20974;-72
2022/05/08 03:38:58;;;;;;;14.50;11.77;;;13.30;99.90;;;;;;5073625;28;20604;-72
2022/05/08 03:41:25;;;;;;;13.47;12.07;;;13.30;99.90;;;;;;5072871;28;20614;-72
2022/05/08 03:43:51;;;;;;;13.33;11.90;;;13.30;99.90;;;;;;5073612;28;20618;-72
2022/05/08 03:46:18;;;;;;;15.40;12.23;;;13.30;99.90;;;;;;5073742;28;20590;-72
2022/05/08 03:48:44;;;;;;;13.43;12.23;;;13.30;99.90;;;;;;5071935;28;21009;-72
2022/05/08 03:51:11;;;;;;;12.67;11.37;;;13.20;99.90;;;;;;5072665;28;20639;-72
2022/05/08 03:53:38;;;;;;;13.03;11.90;;;13.20;99.90;;;;;;5073523;28;20598;-72
2022/05/08 03:56:05;;;;;;;12.63;11.53;;;13.20;99.90;;;;;;5055348;28;20614;-72
2022/05/08 03:58:32;;;;;;;13.65;12.30;;;13.20;99.90;;;;;;5073249;28;20596;-72
2022/05/08 04:00:58;;;;;;;14.37;11.70;;;13.20;99.90;;;;;;5071363;28;20212;-73
2022/05/08 04:03:25;;;;;;;13.23;12.03;;;13.20;99.90;;;;;;5072414;28;20585;-72
2022/05/08 04:05:51;;;;;;;13.83;12.40;;;13.20;99.90;;;;;;5075277;28;21208;-72
2022/05/08 04:08:18;;;;;;;13.57;12.30;;;13.20;99.90;;;;;;5058544;28;20633;-72
2022/05/08 04:10:44;;;;;;;12.75;11.18;;;13.20;99.90;;;;;;5092787;28;20672;-72
2022/05/08 04:13:10;;;;;;;12.60;11.50;;;13.20;99.90;;;;;;5075003;28;20203;-73
2022/05/08 04:18:22;;;;;;;14.37;13.07;;;13.10;99.90;;;;;;5093375;28;20183;-72
2022/05/08 04:20:49;;;;;;;13.47;12.10;;;13.10;99.90;;;;;;5075656;28;20644;-72
2022/05/08 04:26:00;;;;;;;13.37;11.97;;;13.20;99.90;;;;;;5093419;28;20585;-72
2022/05/08 04:28:26;;;;;;;12.80;11.60;;;13.20;99.90;;;;;;5093119;28;20584;-73
2022/05/08 04:30:53;;;;;;;14.40;13.00;;;13.20;99.90;;;;;;5093137;28;20653;-72
2022/05/08 04:33:19;;;;;;;13.70;12.27;;;13.30;99.90;;;;;;5093114;28;20620;-72
2022/05/08 04:35:46;;;;;;;13.43;12.13;;;13.20;99.90;;;;;;5075278;28;20584;-72
2022/05/08 04:38:12;;;;;;;13.53;12.13;;;13.20;99.90;;;;;;5075215;28;20642;-72
2022/05/08 04:40:41;;;;;;;13.33;11.97;;;13.20;99.90;;;;;;5093352;28;20672;-72
2022/05/08 04:43:07;;;;;;;11.70;10.73;;;13.20;99.90;;;;;;5093286;28;21127;-72
2022/05/08 04:45:34;;;;;;;13.50;12.10;;;13.30;99.90;;;;;;5075122;28;20682;-72
2022/05/08 04:48:01;;;;;;;12.50;11.40;;;13.30;99.90;;;;;;5092341;28;20690;-72
2022/05/08 04:50:27;;;;;;;15.07;13.20;;;13.30;99.90;;;;;;5092805;28;20635;-72
2022/05/08 04:52:54;;;;;;;14.17;12.60;;;13.30;99.90;;;;;;5075236;28;21009;-72
2022/05/08 04:55:20;;;;;;;13.13;11.80;;;13.30;99.90;;;;;;5092627;28;20609;-72
2022/05/08 04:57:46;;;;;;;14.70;12.67;;;13.30;99.90;;;;;;5093130;28;20587;-72
2022/05/08 05:00:13;;;;;;;14.10;11.70;;;13.30;99.90;;;;;;5074841;28;20620;-72
2022/05/08 05:02:41;;;;;;;14.63;13.13;;;13.40;99.90;;;;;;5074474;28;20636;-72
2022/05/08 05:05:08;;;;;;;14.67;13.17;;;13.40;99.90;;;;;;5092865;28;20985;-72
2022/05/08 05:07:35;;;;;;;13.30;12.10;;;13.40;99.90;;;;;;5092437;28;20641;-72
2022/05/08 05:10:02;;;;;;;13.00;10.90;;;13.40;99.90;;;;;;5092204;28;20628;-72
2022/05/08 05:12:28;;;;;;;14.20;12.70;;;13.40;99.90;;;;;;5074851;28;20707;-72
2022/05/08 05:14:55;;;;;;;13.10;11.90;;;13.50;99.90;;;;;;5079169;28;20630;-72
2022/05/08 05:17:21;;;;;;;14.37;12.00;;;13.60;99.90;;;;;;5096925;28;21164;-72
2022/05/08 05:19:48;;;;;;;13.70;11.60;;;13.60;99.90;;;;;;5097171;28;20613;-72
2022/05/08 05:22:14;;;;;;;14.43;12.93;;;13.70;99.90;;;;;;5096666;28;20609;-71
2022/05/08 05:24:42;;;;;;;13.33;11.50;;;13.80;99.90;;;;;;5078400;28;20599;-71
2022/05/08 05:27:17;;;;;;;12.60;11.37;;;13.80;99.90;;;;;;5098921;28;20588;-71
2022/05/08 05:29:44;;;;;;;13.10;11.87;;;13.90;99.90;;;;;;5082226;28;21234;-71
2022/05/08 05:32:17;;;;;;;12.20;11.10;;;13.90;99.90;;;;;;5079046;28;20592;-71
2022/05/08 05:34:43;;;;;;;14.53;12.13;;;14.00;99.90;;;;;;5098760;28;20584;-71
2022/05/08 05:37:10;;;;;;;12.30;11.03;;;14.10;99.90;;;;;;5078607;28;20600;-71
2022/05/08 05:39:36;;;;;;;12.80;11.60;;;14.10;99.90;;;;;;5096767;28;20934;-71
2022/05/08 05:42:03;;;;;;;16.17;12.80;;;14.20;99.90;;;;;;5078235;28;20588;-71
2022/05/08 05:44:30;;;;;;;11.17;10.03;;;14.30;99.90;;;;;;5097371;28;20642;-71
2022/05/08 05:49:41;;;;;;;12.83;11.73;;;14.40;99.90;;;;;;5096349;28;20567;-71
2022/05/08 05:52:08;;;;;;;16.00;10.97;;;14.50;99.90;;;;;;5095963;28;21008;-71
2022/05/08 05:54:35;;;;;;;15.60;10.87;;;14.50;99.90;;;;;;5096596;28;20612;-71
2022/05/08 05:57:02;;;;;;;14.50;11.63;;;14.50;99.90;;;;;;5078145;28;20588;-71
2022/05/08 05:59:30;;;;;;;13.53;11.43;;;14.60;99.90;;;;;;5096218;28;20581;-70
2022/05/08 06:01:57;;;;;;;10.53;9.53;;;14.70;99.90;;;;;;5096169;28;20625;-71
2022/05/08 06:04:23;;;;;;;10.80;9.70;;;14.80;99.90;;;;;;5078425;28;20609;-70
2022/05/08 06:06:50;;;;;;;11.83;10.37;;;14.90;99.90;;;;;;5077035;28;20648;-71
2022/05/08 06:09:16;;;;;;;11.83;10.47;;;14.90;99.90;;;;;;5095010;28;20609;-71
2022/05/08 06:11:44;;;;;;;12.20;11.00;;;15.00;99.90;;;;;;5076258;28;20703;-71
2022/05/08 06:14:10;;;;;;;15.93;10.00;;;15.10;99.90;;;;;;5077270;28;20609;-71
2022/05/08 06:16:37;;;;;;;13.37;10.30;;;15.00;99.90;;;;;;5060120;28;21160;-71
2022/05/08 06:19:04;;;;;;;10.30;9.30;;;15.10;99.90;;;;;;5076623;28;20624;-71
2022/05/08 06:21:31;;;;;;;10.87;9.97;;;15.00;99.90;;;;;;5076038;28;20629;-71
2022/05/08 06:23:58;;;;;;;10.90;9.90;;;15.10;99.90;;;;;;5094054;28;20597;-71
2022/05/08 06:26:24;;;;;;;16.90;9.80;;;15.40;99.90;;;;;;5076503;28;21201;-71
2022/05/08 06:28:51;;;;;;;13.33;9.80;;;15.40;99.90;;;;;;5076356;28;20969;-71
2022/05/08 06:31:17;;;;;;;14.53;10.43;;;15.40;99.90;;;;;;5094184;28;20663;-71
2022/05/08 06:33:44;;;;;;;11.83;10.10;;;15.40;99.90;;;;;;5076773;28;20601;-72
2022/05/08 06:36:11;;;;;;;11.60;9.70;;;15.50;99.90;;;;;;5076042;28;20632;-72
2022/05/08 06:38:38;;;;;;;11.10;9.97;;;15.60;99.90;;;;;;5076493;28;20608;-72
2022/05/08 06:41:05;;;;;;;11.93;10.93;;;15.50;99.90;;;;;;5076525;28;20613;-72
2022/05/08 06:43:31;;;;;;;13.73;9.90;;;15.60;99.90;;;;;;5094027;28;20605;-71
2022/05/08 06:45:58;;;;;;;13.13;10.00;;;15.70;99.90;;;;;;5094236;28;20613;-71
2022/05/08 06:48:27;;;;;;;11.67;10.60;;;15.90;99.90;;;;;;5094478;28;20616;-72
2022/05/08 06:50:54;;;;;;;11.60;10.50;;;16.00;99.90;;;;;;5094213;28;20645;-72
2022/05/08 06:53:21;;;;;;;10.40;9.40;;;16.00;99.90;;;;;;5094213;28;20609;-72
2022/05/08 06:55:48;;;;;;;10.03;9.10;;;16.10;99.90;;;;;;5094408;28;20609;-72
2022/05/08 06:58:14;;;;;;;9.50;8.60;;;16.00;99.90;;;;;;5093967;28;20606;-72
2022/05/08 07:03:26;;;;;;;14.17;10.10;;;16.00;99.90;;;;;;5093946;28;20580;-72
2022/05/08 07:05:54;;;;;;;11.47;10.37;;;16.20;99.90;;;;;;5054517;28;1125548;-72
2022/05/08 07:08:21;;;;;;;9.77;8.87;;;16.20;99.90;;;;;;5094740;28;20558;-72
2022/05/08 07:10:48;;;;;;;10.27;9.37;;;16.40;99.90;;;;;;5094533;28;21234;-71
2022/05/08 07:13:16;;;;;;;10.67;9.77;;;16.40;99.90;;;;;;5094523;28;20674;-71
2022/05/08 07:15:43;;;;;;;9.57;8.67;;;16.40;99.90;;;;;;5094673;28;20591;-70
2022/05/08 07:18:10;;;;;;;9.77;8.87;;;16.40;99.90;;;;;;5094848;28;20598;-71
2022/05/08 07:20:36;;;;;;;11.03;10.07;;;16.60;99.90;;;;;;5076982;28;20674;-70
2022/05/08 07:23:03;;;;;;;9.40;8.60;;;16.50;99.90;;;;;;5059667;28;20989;-70
2022/05/08 07:25:29;;;;;;;9.17;8.27;;;16.60;99.90;;;;;;5094627;28;20959;-70
2022/05/08 07:27:55;;;;;;;10.33;9.43;;;16.80;99.90;;;;;;5076628;28;21224;-72
2022/05/08 07:30:22;;;;;;;9.77;8.83;;;16.80;99.90;;;;;;5094670;28;20652;-72
2022/05/08 07:32:49;;;;;;;10.83;9.10;;;16.80;99.90;;;;;;5076062;28;20613;-72
2022/05/08 07:38:00;;;;;;;9.70;8.83;;;16.90;99.90;;;;;;5094181;28;20588;-72
2022/05/08 07:40:29;;;;;;;16.30;10.37;;;17.00;99.90;;;;;;5094087;28;20593;-72
2022/05/08 07:42:55;;;;;;;10.13;9.23;;;17.00;99.90;;;;;;5094368;28;20620;-72
2022/05/08 07:45:22;;;;;;;9.87;8.93;;;17.20;99.90;;;;;;5059891;28;20617;-72
2022/05/08 07:47:49;;;;;;;13.90;9.30;;;17.20;99.90;;;;;;5094065;28;20974;-75
2022/05/08 07:50:15;;;;;;;10.83;9.33;;;17.20;99.90;;;;;;5076457;28;20685;-73
2022/05/08 07:52:42;;;;;;;10.30;8.90;;;17.40;99.90;;;;;;5076817;28;21073;-73
2022/05/08 07:55:09;;;;;;;11.43;8.43;;;17.60;99.90;;;;;;5076730;28;20613;-74
2022/05/08 07:57:36;;;;;;;9.70;8.83;;;17.70;99.90;;;;;;5094231;28;20612;-73
2022/05/08 08:00:04;;;;;;;10.93;9.00;;;17.70;99.90;;;;;;5076050;28;20636;-74
2022/05/08 08:02:30;;;;;;;10.07;9.13;;;17.70;99.90;;;;;;5094308;28;20606;-74
2022/05/08 08:04:57;;;;;;;11.40;9.50;;;17.90;99.90;;;;;;5094675;28;20609;-74
2022/05/08 08:07:23;;;;;;;9.90;8.90;;;18.30;99.90;;;;;;5075423;28;21054;-74
2022/05/08 08:09:49;;;;;;;8.70;7.37;;;18.10;99.90;;;;;;5094052;28;21205;-74
2022/05/08 08:12:16;;;;;;;15.70;8.50;;;18.10;99.90;;;;;;5093907;28;20649;-75
2022/05/08 08:14:42;;;;;;;10.07;8.50;;;17.90;99.90;;;;;;5093296;28;21286;-74
2022/05/08 08:17:09;;;;;;;12.70;8.50;;;18.10;99.90;;;;;;5093366;28;21155;-74
2022/05/08 08:19:35;;;;;;;9.73;8.82;;;18.20;99.90;;;;;;5092760;28;20729;-74
2022/05/08 08:22:02;;;;;;;11.33;8.20;;;18.30;99.90;;;;;;5075354;28;20218;-74
2022/05/08 08:24:28;;;;;;;8.83;8.03;;;18.50;99.90;;;;;;5092776;28;20965;-74
2022/05/08 08:26:55;;;;;;;8.67;7.97;;;18.30;99.90;;;;;;5075418;28;20617;-74
2022/05/08 08:29:21;;;;;;;9.60;8.33;;;18.60;99.90;;;;;;5093788;28;20632;-74
2022/05/08 08:31:47;;;;;;;10.40;7.57;;;18.80;99.90;;;;;;5093850;28;20649;-74
2022/05/08 08:34:14;;;;;;;8.93;7.90;;;18.80;99.90;;;;;;5092909;28;20629;-74
2022/05/08 08:36:40;;;;;;;10.93;9.60;;;19.00;99.90;;;;;;5093203;28;20629;-73
2022/05/08 08:39:07;;;;;;;9.90;8.80;;;18.70;99.90;;;;;;5094135;28;21006;-73
2022/05/08 08:41:36;;;;;;;15.20;9.83;;;18.70;99.90;;;;;;5093570;28;21148;-73
2022/05/08 08:49:43;;;;;;;7.80;7.17;;;19.30;99.90;;;;;;5093589;28;20582;-74
2022/05/08 08:52:11;;;;;;;8.13;7.43;;;19.20;99.90;;;;;;5075467;28;20637;-74
2022/05/08 08:54:38;;;;;;;8.90;8.00;;;19.00;99.90;;;;;;5075417;28;20618;-74
2022/05/08 08:57:04;;;;;;;10.60;8.23;;;18.90;99.90;;;;;;5093332;28;21166;-74
2022/05/08 08:59:31;;;;;;;7.60;7.00;;;18.80;99.90;;;;;;5076253;28;20926;-74
2022/05/08 09:01:57;;;;;;;14.87;7.27;;;19.00;99.90;;;;;;5094019;28;20624;-74
2022/05/08 09:04:24;;;;;;;7.23;6.70;;;19.30;99.90;;;;;;5059063;28;20602;-74
2022/05/08 09:06:51;;;;;;;7.43;6.73;;;19.40;99.90;;;;;;5076063;28;20664;-74
2022/05/08 09:09:34;;;;;;;7.43;6.87;;;19.70;99.90;;;;;;5076507;28;20597;-75
2022/05/08 09:12:02;;;;;;;12.57;7.80;;;19.90;99.90;;;;;;5093701;28;20653;-74
2022/05/08 09:14:33;;;;;;;10.63;7.13;;;19.90;99.90;;;;;;5093519;28;20597;-74
2022/05/08 09:17:04;;;;;;;8.60;7.87;;;20.00;99.90;;;;;;5093239;28;20633;-75
2022/05/08 09:19:38;;;;;;;8.97;7.20;;;20.00;99.90;;;;;;5075031;28;20629;-74
2022/05/08 09:22:05;;;;;;;7.97;7.27;;;20.40;99.90;;;;;;5093745;28;20613;-74
2022/05/08 09:24:33;;;;;;;14.87;7.50;;;20.50;99.90;;;;;;5075575;28;20622;-74
2022/05/08 09:27:10;;;;;;;7.90;7.23;;;20.20;99.90;;;;;;5093604;28;20610;-75
2022/05/08 09:29:36;;;;;;;7.87;7.17;;;20.40;99.90;;;;;;5094568;28;20891;-74
2022/05/08 09:32:03;;;;;;;8.33;7.53;;;20.50;99.90;;;;;;5094103;28;20649;-74
2022/05/08 09:34:29;;;;;;;8.90;7.10;;;20.40;99.90;;;;;;5093821;28;20605;-74
2022/05/08 09:37:08;;;;;;;6.93;6.40;;;20.30;99.90;;;;;;5094358;28;20985;-74
2022/05/08 09:39:35;;;;;;;9.27;6.50;;;20.50;99.90;;;;;;5093736;28;20612;-74
2022/05/08 09:42:01;;;;;;;7.77;7.07;;;20.50;99.90;;;;;;5094070;28;20625;-74
2022/05/08 09:44:28;;;;;;;8.80;7.03;;;20.50;99.90;;;;;;5059360;28;20625;-72
2022/05/08 09:46:57;;;;;;;11.40;6.90;;;20.50;99.90;;;;;;5093408;28;20674;-74
2022/05/08 09:49:25;;;;;;;8.17;7.40;;;20.50;99.90;;;;;;5093509;28;20605;-72
2022/05/08 09:51:53;;;;;;;7.07;6.47;;;20.80;99.90;;;;;;5093313;28;21008;-73
2022/05/08 09:54:20;;;;;;;8.03;6.50;;;20.90;99.90;;;;;;5076016;28;20620;-73
2022/05/08 09:56:47;;;;;;;7.93;7.03;;;20.70;99.90;;;;;;5075468;28;20632;-73
2022/05/08 09:59:14;;;;;;;11.33;6.87;;;20.70;99.90;;;;;;5094740;28;20631;-73
2022/05/08 10:01:42;;;;;;;7.80;6.30;;;20.80;99.90;;;;;;5097448;28;20624;-73
2022/05/08 10:04:09;;;;;;;8.77;6.37;;;20.80;99.90;;;;;;5079351;28;20613;-72
2022/05/08 10:06:40;;;;;;;6.83;6.23;;;20.70;99.90;;;;;;5096509;28;20657;-73
2022/05/08 10:15:18;;;;;;;7.17;6.67;;;20.90;99.90;;;;;;5015349;28;20609;-73
2022/05/08 10:17:45;;;;;;;9.27;8.00;;;21.40;99.90;;;;;;5014689;28;20641;-73
2022/05/08 10:20:11;;;;;;;9.20;7.80;;;21.60;99.90;;;;;;5065249;28;20613;-73
2022/05/08 10:22:48;;;;;;;7.87;7.10;;;21.70;99.90;;;;;;5096885;28;20617;-73
2022/05/08 10:25:16;;;;;;;7.30;6.60;;;21.70;99.90;;;;;;5096916;28;20632;-73
2022/05/08 10:28:08;;;;;;;8.20;6.13;;;22.00;99.90;;;;;;5096280;28;20654;-73
2022/05/08 10:30:35;;;;;;;8.07;6.60;;;22.30;99.90;;;;;;5078430;28;20616;-73
2022/05/08 10:33:02;;;;;;;7.30;6.60;;;22.60;99.90;;;;;;5078231;28;20614;-73
2022/05/08 10:35:30;;;;;;;7.87;7.07;;;22.40;99.90;;;;;;5095949;28;20613;-73
2022/05/08 10:38:02;;;;;;;7.13;6.40;;;22.40;99.90;;;;;;5095478;28;20613;-74
2022/05/08 10:40:28;;;;;;;6.53;6.03;;;22.80;99.90;;;;;;5095827;28;20613;-74
2022/05/08 10:42:56;;;;;;;7.20;6.27;;;22.90;99.90;;;;;;5095655;28;21225;-74
2022/05/08 10:45:34;;;;;;;7.80;6.00;;;22.20;99.90;;;;;;5095944;28;21198;-74
2022/05/08 10:48:21;;;;;;;6.57;5.97;;;23.00;99.90;;;;;;5095558;28;20993;-74
2022/05/08 10:50:56;;;;;;;6.37;5.90;;;23.10;99.90;;;;;;5095557;28;20638;-74
2022/05/08 10:53:36;;;;;;;7.23;6.00;;;23.20;99.90;;;;;;5095810;28;21067;-75
2022/05/08 10:56:09;;;;;;;6.53;6.10;;;23.20;99.90;;;;;;5095792;28;20588;-74
2022/05/08 10:58:38;;;;;;;7.03;6.53;;;23.00;99.90;;;;;;5095786;28;20584;-74
2022/05/08 11:01:09;;;;;;;6.77;6.17;;;23.20;99.90;;;;;;5095560;28;20605;-75
2022/05/08 11:03:36;;;;;;;6.07;5.40;;;23.00;99.90;;;;;;5095722;28;20600;-74
2022/05/08 11:06:06;;;;;;;6.70;5.97;;;23.10;99.90;;;;;;5095157;28;21020;-74
2022/05/08 11:08:35;;;;;;;11.83;5.40;;;23.40;99.90;;;;;;5095316;28;20746;-74
2022/05/08 11:11:03;;;;;;;5.73;5.33;;;23.70;99.90;;;;;;5094630;28;20653;-74
2022/05/08 11:13:46;;;;;;;5.87;5.37;;;23.50;99.90;;;;;;5095078;28;21225;-74
2022/05/08 11:16:29;;;;;;;5.30;4.80;;;23.80;99.90;;;;;;5077204;28;21124;-74
2022/05/08 11:18:58;;;;;;;4.70;4.40;;;24.20;99.90;;;;;;5095017;28;20613;-73
2022/05/08 11:21:26;;;;;;;5.10;4.80;;;25.20;99.90;;;;;;5095463;28;20617;-73
2022/05/08 11:23:54;;;;;;;8.23;5.50;;;25.40;99.90;;;;;;5095247;28;20697;-73
2022/05/08 11:26:27;;;;;;;6.10;5.50;;;25.90;99.90;;;;;;5077557;28;20617;-73
2022/05/08 11:28:55;;;;;;;6.90;4.50;;;25.70;99.90;;;;;;5095606;28;20639;-73
2022/05/08 11:31:24;;;;;;;5.73;5.23;;;24.60;99.90;;;;;;5095468;28;20645;-73
2022/05/08 11:36:38;;;;;;;7.30;6.10;;;25.50;99.90;;;;;;5079439;28;20585;-73
2022/05/08 11:39:13;;;;;;;5.87;5.13;;;24.90;99.90;;;;;;5094527;28;20621;-73
2022/05/08 11:41:44;;;;;;;6.00;5.50;;;24.20;99.90;;;;;;5094132;28;20640;-73
2022/05/08 11:44:13;;;;;;;5.77;5.37;;;24.20;99.90;;;;;;5094314;28;20621;-73
2022/05/08 11:46:45;;;;;;;5.77;5.37;;;25.00;99.90;;;;;;5094695;28;20686;-73
2022/05/08 11:49:12;;;;;;;5.37;4.87;;;25.00;99.90;;;;;;5093946;28;20758;-73
2022/05/08 11:51:41;;;;;;;8.63;5.47;;;25.70;99.90;;;;;;5093761;28;20673;-73
2022/05/08 11:54:24;;;;;;;6.77;6.07;;;25.80;99.90;;;;;;5094504;28;20633;-73
2022/05/08 11:57:08;;;;;;;5.60;5.07;;;25.60;99.90;;;;;;5094271;28;20589;-73
2022/05/08 11:59:35;;;;;;;8.63;4.77;;;25.70;99.90;;;;;;5094138;28;20574;-73
2022/05/08 12:02:02;;;;;;;5.93;5.50;;;25.00;99.90;;;;;;5094209;28;20984;-73
2022/05/08 12:04:36;;;;;;;6.60;5.27;;;24.50;99.90;;;;;;5094382;28;20606;-73
2022/05/08 12:07:05;;;;;;;6.20;5.70;;;24.30;99.90;;;;;;5093862;28;20710;-73
2022/05/08 12:09:43;;;;;;;4.77;4.43;;;24.30;99.90;;;;;;5093684;28;21046;-73
2022/05/08 12:12:44;;;;;;;5.27;4.80;;;24.60;99.90;;;;;;5075928;28;20687;-73
2022/05/08 12:15:10;;;;;;;6.07;5.13;;;25.20;99.90;;;;;;5040190;28;20633;-73
2022/05/08 12:17:40;;;;;;;5.27;4.90;;;25.20;99.90;;;;;;5094157;28;20616;-73
2022/05/08 12:20:19;;;;;;;5.50;5.10;;;25.10;99.90;;;;;;5075284;28;20624;-73
2022/05/08 12:23:00;;;;;;;4.90;4.63;;;25.00;99.90;;;;;;5093701;28;21242;-73
2022/05/08 12:25:27;;;;;;;4.73;4.40;;;24.90;99.90;;;;;;5075920;28;20585;-73
2022/05/08 12:27:53;;;;;;;6.10;5.53;;;25.60;99.90;;;;;;5093803;28;21172;-73
2022/05/08 12:30:20;;;;;;;10.17;5.60;;;25.50;99.90;;;;;;5094008;28;20636;-73
2022/05/08 12:32:46;;;;;;;5.83;5.33;;;25.70;99.90;;;;;;5093292;28;20664;-73
2022/05/08 12:35:13;;;;;;;5.97;5.37;;;25.60;99.90;;;;;;5075241;28;20669;-73
2022/05/08 12:37:40;;;;;;;5.53;5.23;;;25.50;99.90;;;;;;5093589;28;20601;-74
2022/05/08 12:40:08;;;;;;;5.63;5.13;;;25.50;99.90;;;;;;5093665;28;20943;-73
2022/05/08 12:42:35;;;;;;;5.43;4.83;;;25.60;99.90;;;;;;5093784;28;20679;-73
2022/05/08 12:45:01;;;;;;;5.57;5.17;;;25.60;99.90;;;;;;5093351;28;20613;-73
2022/05/08 12:47:28;;;;;;;5.20;4.80;;;25.90;99.90;;;;;;5093276;28;20648;-73
2022/05/08 12:49:54;;;;;;;5.93;5.43;;;25.70;99.90;;;;;;5093762;28;20616;-73
2022/05/08 12:52:21;;;;;;;5.47;5.03;;;26.20;99.90;;;;;;5093088;28;20665;-73
2022/05/08 12:54:47;;;;;;;6.10;5.50;;;26.50;99.90;;;;;;5093346;28;21163;-73
2022/05/08 12:59:59;;;;;;;5.70;5.20;;;26.90;99.90;;;;;;5093916;28;20581;-74
2022/05/08 13:02:26;;;;;;;4.83;4.43;;;27.80;99.90;;;;;;5093988;28;20617;-74
2022/05/08 13:04:53;;;;;;;6.53;5.43;;;28.00;99.90;;;;;;5093500;28;20613;-73
2022/05/08 13:07:20;;;;;;;8.20;4.77;;;27.60;99.90;;;;;;5093547;28;20639;-73
2022/05/08 13:09:46;;;;;;;5.17;4.60;;;27.50;99.90;;;;;;5093194;28;20991;-73
2022/05/08 13:12:13;;;;;;;5.10;4.80;;;27.10;99.90;;;;;;5093574;28;20653;-73
2022/05/08 13:14:40;;;;;;;5.20;4.80;;;27.30;99.90;;;;;;5075126;28;20999;-73
2022/05/08 13:17:07;;;;;;;5.40;5.00;;;26.80;99.90;;;;;;5094662;28;20685;-73
2022/05/08 13:19:34;;;;;;;4.57;4.20;;;26.50;99.90;;;;;;5094073;28;20938;-73